Time;durP1;ratioP1;P1;durP2;ratioP2;P2;SDS_P1;SDS_P2;PMS_P1;PMS_P2;Temp;Humidity;BMP_temperature;BMP_pressure;BME280_temperature;BME280_humidity;BME280_pressure;Samples;Min_cycle;Max_cycle;Signal;HPM_P1;HPM_P2
2023/10/06 00:01:25;;;;;;;12.00;7.47;;;13.60;99.90;;;;;;5066755;28;20451;-47
2023/10/06 00:03:57;;;;;;;12.80;7.80;;;13.60;99.90;;;;;;5058492;28;20078;-46
2023/10/06 00:06:27;;;;;;;11.20;7.25;;;13.60;99.90;;;;;;5069724;28;20055;-47
2023/10/06 00:08:55;;;;;;;12.57;7.55;;;13.60;99.90;;;;;;5054355;28;20149;-47
2023/10/06 00:11:29;;;;;;;12.40;7.85;;;13.50;99.90;;;;;;5062314;28;20045;-48
2023/10/06 00:14:03;;;;;;;11.70;8.43;;;13.50;99.90;;;;;;5059223;28;20116;-48
2023/10/06 00:16:38;;;;;;;12.60;8.77;;;13.50;99.90;;;;;;5054201;28;20124;-46
2023/10/06 00:19:19;;;;;;;14.40;8.40;;;13.50;99.90;;;;;;5066120;28;20064;-48
2023/10/06 00:21:47;;;;;;;16.30;8.43;;;13.40;99.90;;;;;;5060431;28;20048;-46
2023/10/06 00:24:13;;;;;;;12.63;8.25;;;13.40;99.90;;;;;;5051885;28;20379;-47
2023/10/06 00:26:42;;;;;;;12.30;8.48;;;13.40;99.90;;;;;;5058510;28;20044;-45
2023/10/06 00:29:18;;;;;;;12.18;8.02;;;13.40;99.90;;;;;;5057460;28;20041;-46
2023/10/06 00:31:47;;;;;;;9.75;8.07;;;13.30;99.90;;;;;;5054890;28;20056;-47
2023/10/06 00:34:19;;;;;;;14.27;8.30;;;13.30;99.90;;;;;;5068297;28;20044;-47
2023/10/06 00:36:51;;;;;;;15.05;8.23;;;13.30;99.90;;;;;;5062558;28;20119;-46
2023/10/06 00:39:30;;;;;;;13.23;8.85;;;;;;;;;;5066336;28;20048;-46
2023/10/06 00:42:05;;;;;;;12.77;7.72;;;;;;;;;;5058227;28;20049;-47
2023/10/06 00:44:35;;;;;;;12.45;8.20;;;;;;;;;;5065464;28;20071;-48
2023/10/06 00:47:04;;;;;;;13.07;8.35;;;;;;;;;;5063284;28;20056;-47
2023/10/06 00:49:31;;;;;;;14.23;7.90;;;;;;;;;;5057859;28;20044;-49
2023/10/06 00:51:59;;;;;;;12.80;7.95;;;14.00;99.90;;;;;;5063266;28;20407;-46
2023/10/06 00:54:25;;;;;;;;;;;13.40;99.90;;;;;;5052563;28;20440;-46
2023/10/06 00:57:08;;;;;;;12.35;7.90;;;13.40;99.90;;;;;;5051925;28;19999;-49
2023/10/06 00:59:37;;;;;;;14.85;7.70;;;13.40;99.90;;;;;;5066788;28;20052;-48
2023/10/06 01:02:08;;;;;;;11.20;7.40;;;;;;;;;;5064246;28;20083;-45
2023/10/06 01:04:38;;;;;;;11.43;7.60;;;13.30;99.90;;;;;;5062931;28;20124;-47
2023/10/06 01:07:05;;;;;;;12.02;7.80;;;13.40;99.90;;;;;;5059248;28;20132;-46
2023/10/06 01:09:36;;;;;;;13.15;7.57;;;13.40;99.90;;;;;;5057547;28;20081;-47
2023/10/06 01:12:06;;;;;;;12.55;7.70;;;13.40;99.90;;;;;;5055725;28;20047;-46
2023/10/06 01:14:34;;;;;;;11.63;7.55;;;13.50;99.90;;;;;;5069066;28;20036;-47
2023/10/06 01:19:37;;;;;;;10.27;7.32;;;;;;;;;;5058100;28;20136;-46
2023/10/06 01:22:29;;;;;;;10.23;7.28;;;;;;;;;;5056848;28;20041;-48
2023/10/06 01:24:55;;;;;;;12.65;7.38;;;13.40;99.90;;;;;;5070150;28;20045;-49
2023/10/06 01:27:27;;;;;;;13.38;7.47;;;13.40;99.90;;;;;;5062652;28;20037;-46
2023/10/06 01:30:17;;;;;;;11.05;8.23;;;13.30;99.90;;;;;;5059060;28;20128;-46
2023/10/06 01:32:49;;;;;;;12.23;7.83;;;13.40;99.90;;;;;;5057897;28;20049;-46
2023/10/06 01:35:15;;;;;;;12.98;7.78;;;13.40;99.90;;;;;;5062872;28;20056;-48
2023/10/06 01:37:44;;;;;;;12.05;7.88;;;13.40;99.90;;;;;;5058149;28;20041;-49
2023/10/06 01:42:57;;;;;;;12.93;8.20;;;13.40;99.90;;;;;;5056372;28;20078;-46
2023/10/06 01:45:23;;;;;;;11.98;7.60;;;13.20;99.90;;;;;;5063877;28;20056;-48
2023/10/06 01:47:55;;;;;;;15.23;8.00;;;13.30;99.90;;;;;;5067055;28;20040;-47
2023/10/06 01:50:26;;;;;;;15.65;8.32;;;13.30;99.90;;;;;;5059015;28;20045;-47
2023/10/06 01:52:53;;;;;;;13.68;7.18;;;13.40;99.90;;;;;;5054545;28;20139;-46
2023/10/06 01:55:23;;;;;;;12.60;7.93;;;13.30;99.90;;;;;;5053432;28;20052;-47
2023/10/06 01:57:49;;;;;;;13.85;8.32;;;13.30;99.90;;;;;;5067632;28;20130;-49
2023/10/06 02:00:26;;;;;;;12.90;7.38;;;;;;;;;;5052269;28;20147;-46
2023/10/06 02:02:52;;;;;;;12.30;8.37;;;;;;;;;;5062251;28;20060;-46
2023/10/06 02:05:18;;;;;;;13.30;8.20;;;;;;;;;;5057264;28;20128;-48
2023/10/06 02:07:44;;;;;;;13.45;8.50;;;;;;;;;;5057667;28;20131;-46
2023/10/06 02:10:15;;;;;;;13.55;8.60;;;;;;;;;;5062929;28;20045;-46
2023/10/06 02:12:42;;;;;;;13.90;8.35;;;;;;;;;;5070855;28;20044;-47
2023/10/06 02:15:11;;;;;;;14.55;8.73;;;;;;;;;;5062371;28;20183;-45
2023/10/06 02:17:41;;;;;;;13.15;8.48;;;;;;;;;;5060934;28;20080;-45
2023/10/06 02:22:57;;;;;;;13.55;8.77;;;;;;;;;;5065366;28;20084;-47
2023/10/06 02:25:27;;;;;;;13.93;8.82;;;;;;;;;;5067686;28;20048;-46
2023/10/06 02:27:59;;;;;;;16.65;9.20;;;;;;;;;;5061081;28;20140;-46
2023/10/06 02:30:33;;;;;;;13.18;8.75;;;;;;;;;;5056528;28;20044;-46
2023/10/06 02:33:01;;;;;;;13.90;9.25;;;;;;;;;;5053222;28;20059;-49
2023/10/06 02:35:28;;;;;;;15.57;9.00;;;;;;;;;;5056047;28;20040;-48
2023/10/06 02:37:57;;;;;;;8.68;7.75;;;13.20;99.90;;;;;;5055384;28;20513;-49
2023/10/06 02:40:30;;;;;;;11.85;8.23;;;13.20;99.90;;;;;;5052058;28;20044;-49
2023/10/06 02:42:59;;;;;;;18.23;9.48;;;13.30;99.90;;;;;;5066934;28;20048;-47
2023/10/06 02:45:40;;;;;;;13.35;8.80;;;13.30;99.90;;;;;;5065305;28;20057;-47
2023/10/06 02:48:14;;;;;;;16.52;8.93;;;13.30;99.90;;;;;;5058539;28;20464;-46
2023/10/06 02:50:46;;;;;;;10.35;7.47;;;13.20;99.90;;;;;;5057493;28;20479;-49
2023/10/06 02:53:20;;;;;;;13.15;8.18;;;13.20;99.90;;;;;;5063973;28;20036;-46
2023/10/06 02:55:49;;;;;;;13.73;8.93;;;13.10;99.90;;;;;;5056976;28;20142;-46
2023/10/06 02:58:27;;;;;;;14.35;8.45;;;13.10;99.90;;;;;;5060977;28;20160;-46
2023/10/06 03:00:55;;;;;;;11.35;7.68;;;13.10;99.90;;;;;;5062235;28;20414;-48
2023/10/06 03:03:26;;;;;;;11.70;7.90;;;13.10;99.90;;;;;;5063345;28;20048;-49
2023/10/06 03:05:53;;;;;;;16.90;8.60;;;13.10;99.90;;;;;;5069094;28;20036;-48
2023/10/06 03:08:23;;;;;;;14.15;7.63;;;13.10;99.90;;;;;;5068499;28;20047;-48
2023/10/06 03:10:49;;;;;;;15.27;7.80;;;13.10;99.90;;;;;;5057845;28;20048;-47
2023/10/06 03:13:24;;;;;;;12.25;7.55;;;13.20;99.90;;;;;;5060232;28;20040;-49
2023/10/06 03:15:50;;;;;;;12.55;7.57;;;13.20;99.90;;;;;;5054155;28;20163;-49
2023/10/06 03:18:17;;;;;;;14.70;7.63;;;13.10;99.90;;;;;;5064957;28;20139;-49
2023/10/06 03:20:47;;;;;;;12.43;7.53;;;13.10;99.90;;;;;;5063009;28;20415;-49
2023/10/06 03:23:38;;;;;;;11.30;7.40;;;13.10;99.90;;;;;;5060938;28;20056;-46
2023/10/06 03:26:21;;;;;;;11.20;7.32;;;;;;;;;;5061059;28;20129;-49
2023/10/06 03:28:52;;;;;;;12.25;7.22;;;;;;;;;;5063557;28;20391;-49
2023/10/06 03:33:47;;;;;;;11.88;7.10;;;;;;;;;;5067171;28;20127;-47
2023/10/06 03:36:16;;;;;;;14.93;7.55;;;;;;;;;;5063284;28;20045;-46
2023/10/06 03:39:06;;;;;;;11.60;7.32;;;;;;;;;;5068628;28;20048;-46
2023/10/06 03:41:32;;;;;;;11.65;6.35;;;;;;;;;;5062385;28;20090;-46
2023/10/06 03:44:03;;;;;;;11.43;7.10;;;;;;;;;;5053421;28;20057;-45
2023/10/06 03:46:36;;;;;;;17.58;8.10;;;;;;;;;;5053291;28;20055;-46
2023/10/06 03:49:07;;;;;;;11.35;7.22;;;;;;;;;;5064439;28;20044;-46
2023/10/06 03:51:38;;;;;;;11.60;7.20;;;;;;;;;;5064843;28;20048;-47
2023/10/06 03:54:04;;;;;;;13.27;7.00;;;;;;;;;;5054657;28;20458;-48
2023/10/06 03:56:30;;;;;;;10.50;6.78;;;;;;;;;;5058861;28;20044;-46
2023/10/06 03:58:56;;;;;;;14.73;7.30;;;;;;;;;;5064817;28;20348;-49
2023/10/06 04:01:31;;;;;;;12.88;7.10;;;;;;;;;;5064987;28;20048;-48
2023/10/06 04:03:58;;;;;;;11.50;7.40;;;;;;;;;;5066453;28;20482;-46
2023/10/06 04:06:25;;;;;;;9.32;6.32;;;;;;;;;;5057076;28;20045;-46
2023/10/06 04:08:52;;;;;;;17.60;8.25;;;;;;;;;;5057509;28;20391;-46
2023/10/06 04:11:18;;;;;;;12.40;7.53;;;;;;;;;;5057758;28;20040;-47
2023/10/06 04:13:45;;;;;;;13.68;7.72;;;;;;;;;;5057393;28;20079;-49
2023/10/06 04:16:14;;;;;;;14.07;7.50;;;;;;;;;;5061410;28;20040;-46
2023/10/06 04:18:40;;;;;;;13.25;7.60;;;;;;;;;;5066109;28;20056;-48
2023/10/06 04:21:11;;;;;;;12.00;7.65;;;12.80;99.90;;;;;;5062804;28;20065;-47
2023/10/06 04:23:41;;;;;;;13.23;7.85;;;12.80;99.90;;;;;;5065812;28;20106;-46
2023/10/06 04:26:07;;;;;;;11.45;7.68;;;12.70;99.90;;;;;;5052505;28;20440;-49
2023/10/06 04:28:33;;;;;;;11.50;8.00;;;12.70;99.90;;;;;;5067321;28;20041;-47
2023/10/06 04:31:02;;;;;;;13.02;7.65;;;;;;;;;;5055390;28;20498;-47
2023/10/06 04:33:30;;;;;;;11.75;7.97;;;;;;;;;;5061701;28;20037;-46
2023/10/06 04:35:59;;;;;;;18.25;8.05;;;;;;;;;;5058467;28;20096;-48
2023/10/06 04:38:29;;;;;;;16.33;8.23;;;;;;;;;;5058554;28;20044;-49
2023/10/06 04:40:58;;;;;;;13.55;8.32;;;;;;;;;;5066934;28;20143;-46
2023/10/06 04:43:26;;;;;;;12.18;7.65;;;;;;;;;;5066470;28;20044;-46
2023/10/06 04:45:52;;;;;;;14.75;8.18;;;;;;;;;;5060634;28;20053;-46
2023/10/06 04:48:21;;;;;;;15.15;8.05;;;;;;;;;;5064114;28;20154;-47
2023/10/06 04:50:50;;;;;;;12.70;8.15;;;;;;;;;;5058524;28;20462;-46
2023/10/06 04:53:16;;;;;;;13.50;8.48;;;;;;;;;;5064620;28;20455;-46
2023/10/06 04:55:43;;;;;;;13.25;7.97;;;;;;;;;;5064629;28;20513;-46
2023/10/06 04:58:10;;;;;;;16.55;8.27;;;;;;;;;;5067892;28;20084;-45
2023/10/06 05:00:36;;;;;;;13.73;7.95;;;;;;;;;;5072719;28;20056;-48
2023/10/06 05:03:05;;;;;;;11.52;8.13;;;;;;;;;;5066908;28;20043;-46
2023/10/06 05:05:37;;;;;;;17.85;8.30;;;;;;;;;;5055220;28;20048;-47
2023/10/06 05:08:04;;;;;;;14.82;8.70;;;;;;;;;;5061000;28;20045;-46
2023/10/06 05:10:31;;;;;;;17.10;9.13;;;;;;;;;;5069537;28;20045;-46
2023/10/06 05:12:57;;;;;;;13.40;8.40;;;;;;;;;;5058344;28;20040;-47
2023/10/06 05:15:26;;;;;;;14.27;8.23;;;;;;;;;;5057230;28;20136;-47
2023/10/06 05:17:55;;;;;;;14.38;8.45;;;;;;;;;;5068140;28;20097;-47
2023/10/06 05:20:29;;;;;;;13.07;8.07;;;;;;;;;;5073748;28;20040;-47
2023/10/06 05:23:09;;;;;;;15.60;8.13;;;;;;;;;;5065255;28;20047;-45
2023/10/06 05:25:35;;;;;;;13.63;8.57;;;;;;;;;;5066375;28;20049;-46
2023/10/06 05:28:02;;;;;;;14.23;8.35;;;;;;;;;;5058381;28;20037;-48
2023/10/06 05:30:28;;;;;;;12.32;7.50;;;;;;;;;;5066613;28;20048;-47
2023/10/06 05:32:58;;;;;;;16.70;8.77;;;;;;;;;;5064208;28;20048;-46
2023/10/06 05:35:29;;;;;;;12.23;7.85;;;;;;;;;;5054895;28;20438;-47
2023/10/06 05:37:55;;;;;;;12.63;7.97;;;;;;;;;;5058929;28;20041;-49
2023/10/06 05:40:21;;;;;;;23.75;8.82;;;;;;;;;;5065561;28;20041;-49
2023/10/06 05:42:50;;;;;;;14.80;8.13;;;;;;;;;;5062812;28;20048;-47
2023/10/06 05:45:18;;;;;;;10.82;8.10;;;;;;;;;;5064057;28;20460;-48
2023/10/06 05:47:50;;;;;;;16.77;7.75;;;;;;;;;;5063021;28;20045;-47
2023/10/06 05:50:29;;;;;;;15.80;7.75;;;;;;;;;;5067672;28;20060;-46
2023/10/06 05:53:04;;;;;;;14.20;7.55;;;;;;;;;;5066028;28;20491;-46
2023/10/06 05:55:31;;;;;;;12.55;6.72;;;;;;;;;;5065152;28;20115;-46
2023/10/06 05:58:00;;;;;;;13.77;7.32;;;;;;;;;;5060548;28;20044;-47
2023/10/06 06:00:30;;;;;;;13.77;7.82;;;12.70;99.90;;;;;;5071116;28;20045;-48
2023/10/06 06:03:13;;;;;;;12.20;7.28;;;12.70;99.90;;;;;;5071572;28;20123;-47
2023/10/06 06:05:40;;;;;;;14.00;7.40;;;12.70;99.90;;;;;;5067152;28;20135;-45
2023/10/06 06:08:09;;;;;;;13.60;7.35;;;12.70;99.90;;;;;;5068639;28;20052;-46
2023/10/06 06:10:40;;;;;;;15.60;7.75;;;12.80;99.90;;;;;;5065284;28;20052;-46
2023/10/06 06:13:06;;;;;;;11.13;6.75;;;12.80;99.90;;;;;;5058850;28;20535;-46
2023/10/06 06:15:32;;;;;;;13.02;6.90;;;12.90;99.90;;;;;;5061502;28;20051;-47
2023/10/06 06:17:58;;;;;;;15.68;7.10;;;12.90;99.90;;;;;;5062126;28;20049;-49
2023/10/06 06:20:25;;;;;;;13.25;6.78;;;13.00;99.90;;;;;;5068185;28;20049;-46
2023/10/06 06:23:12;;;;;;;10.98;7.00;;;13.00;99.90;;;;;;5061343;28;20429;-48
2023/10/06 06:25:41;;;;;;;12.25;6.15;;;13.10;99.90;;;;;;5056399;28;20049;-45
2023/10/06 06:28:08;;;;;;;9.63;6.40;;;13.20;99.90;;;;;;5068608;28;20044;-45
2023/10/06 06:30:37;;;;;;;12.45;6.47;;;13.30;99.90;;;;;;5067024;28;20482;-46
2023/10/06 06:33:04;;;;;;;14.63;6.72;;;13.40;99.90;;;;;;5058567;28;20048;-46
2023/10/06 06:35:32;;;;;;;13.02;6.28;;;13.50;99.90;;;;;;5070413;28;20055;-46
2023/10/06 06:38:01;;;;;;;13.02;6.10;;;13.60;99.90;;;;;;5063471;28;20040;-45
2023/10/06 06:40:30;;;;;;;11.88;6.35;;;13.70;99.90;;;;;;5068717;28;20044;-46
2023/10/06 06:42:56;;;;;;;12.73;6.05;;;13.70;99.90;;;;;;5063477;28;20036;-45
2023/10/06 06:45:24;;;;;;;9.00;5.63;;;13.80;99.90;;;;;;5065773;28;20444;-48
2023/10/06 06:47:50;;;;;;;13.80;5.82;;;13.90;99.90;;;;;;5055312;28;20061;-46
2023/10/06 06:50:17;;;;;;;13.80;6.00;;;13.90;99.90;;;;;;5054200;28;20037;-48
2023/10/06 06:52:47;;;;;;;12.18;5.78;;;13.90;99.90;;;;;;5063758;28;20066;-46
2023/10/06 06:55:13;;;;;;;12.27;5.80;;;13.90;99.90;;;;;;5066261;28;20459;-46
2023/10/06 06:57:43;;;;;;;11.98;6.07;;;14.00;99.90;;;;;;5058896;28;20048;-48
2023/10/06 07:00:21;;;;;;;11.55;6.28;;;14.00;99.90;;;;;;5067351;28;20044;-46
2023/10/06 07:02:52;;;;;;;11.02;5.50;;;14.10;99.90;;;;;;5053828;28;20488;-49
2023/10/06 07:05:20;;;;;;;9.95;5.13;;;14.10;99.90;;;;;;5055403;28;20120;-47
2023/10/06 07:07:47;;;;;;;12.05;5.90;;;14.20;99.90;;;;;;5062031;28;20123;-46
2023/10/06 07:10:15;;;;;;;9.57;5.72;;;14.30;99.90;;;;;;5064215;28;20052;-45
2023/10/06 07:12:42;;;;;;;11.45;5.43;;;14.40;99.90;;;;;;5059159;28;20170;-49
2023/10/06 07:15:15;;;;;;;8.52;5.15;;;14.40;99.90;;;;;;5064388;28;20053;-49
2023/10/06 07:17:46;;;;;;;8.48;5.63;;;14.50;99.90;;;;;;5070142;28;20494;-45
2023/10/06 07:20:14;;;;;;;10.85;6.00;;;14.60;99.90;;;;;;5058090;28;20573;-49
2023/10/06 07:22:47;;;;;;;11.43;5.55;;;14.70;99.90;;;;;;5074044;28;20111;-47
2023/10/06 07:25:15;;;;;;;11.68;5.47;;;14.70;99.90;;;;;;5072116;28;20045;-49
2023/10/06 07:27:45;;;;;;;10.63;6.20;;;14.70;99.90;;;;;;5060188;28;20060;-46
2023/10/06 07:30:14;;;;;;;7.50;5.00;;;14.70;99.90;;;;;;5061670;28;20033;-46
2023/10/06 07:32:41;;;;;;;11.13;6.20;;;14.70;99.90;;;;;;5051199;28;20048;-46
2023/10/06 07:35:11;;;;;;;9.18;5.38;;;14.70;99.90;;;;;;5061049;28;20510;-46
2023/10/06 07:37:39;;;;;;;8.65;5.22;;;14.70;99.90;;;;;;5054771;28;20171;-48
2023/10/06 07:40:12;;;;;;;10.02;5.93;;;14.70;99.90;;;;;;5050861;28;20052;-46
2023/10/06 07:42:46;;;;;;;13.32;5.88;;;14.70;99.90;;;;;;5061352;28;20053;-47
2023/10/06 07:45:12;;;;;;;10.45;5.28;;;14.70;99.90;;;;;;5054257;28;20053;-46
2023/10/06 07:47:39;;;;;;;10.20;6.03;;;14.70;99.90;;;;;;5062502;28;20029;-46
2023/10/06 07:50:06;;;;;;;;;;;14.80;99.90;;;;;;5062451;28;20407;-49
2023/10/06 07:52:41;;;;;;;13.10;6.22;;;14.80;99.90;;;;;;5054978;28;19928;-46
2023/10/06 07:55:09;;;;;;;11.68;6.03;;;14.80;99.90;;;;;;5055882;28;20060;-47
2023/10/06 07:57:37;;;;;;;8.38;5.30;;;14.90;99.90;;;;;;5060653;28;20059;-47
2023/10/06 08:00:07;;;;;;;11.48;5.75;;;15.00;99.90;;;;;;5063704;28;20487;-46
2023/10/06 08:02:39;;;;;;;8.77;5.15;;;15.10;99.90;;;;;;5064620;28;20048;-46
2023/10/06 08:05:12;;;;;;;11.35;5.78;;;15.20;99.90;;;;;;5065091;28;20044;-47
2023/10/06 08:07:44;;;;;;;9.32;5.43;;;15.30;99.90;;;;;;5061983;28;20044;-47
2023/10/06 08:10:13;;;;;;;10.70;5.80;;;15.50;99.90;;;;;;5061076;28;20044;-46
2023/10/06 08:13:02;;;;;;;12.40;5.68;;;15.60;99.90;;;;;;5060529;28;20088;-46
2023/10/06 08:15:28;;;;;;;9.73;5.65;;;15.70;99.90;;;;;;5059901;28;20512;-49
2023/10/06 08:17:53;;;;;;;11.98;5.18;;;15.70;99.90;;;;;;5056960;28;20069;-48
2023/10/06 08:20:24;;;;;;;9.88;5.50;;;15.90;99.90;;;;;;5062010;28;20539;-47
2023/10/06 08:22:50;;;;;;;10.98;5.47;;;15.80;99.90;;;;;;5060181;28;20044;-47
2023/10/06 08:25:17;;;;;;;7.05;5.35;;;15.70;99.90;;;;;;5061754;28;20079;-46
2023/10/06 08:27:45;;;;;;;14.38;5.63;;;15.60;99.90;;;;;;5062240;28;20076;-48
2023/10/06 08:30:21;;;;;;;9.75;5.28;;;15.70;99.90;;;;;;5082751;28;20044;-47
2023/10/06 08:32:54;;;;;;;10.52;5.80;;;15.60;99.90;;;;;;5068860;28;20049;-48
2023/10/06 08:35:20;;;;;;;8.98;5.40;;;15.60;99.90;;;;;;5061706;28;20056;-48
2023/10/06 08:37:48;;;;;;;10.68;5.68;;;15.60;99.90;;;;;;5064167;28;20044;-48
2023/10/06 08:40:16;;;;;;;11.88;6.05;;;15.60;99.90;;;;;;5063892;28;20384;-49
2023/10/06 08:42:46;;;;;;;11.30;6.57;;;15.60;99.90;;;;;;5073184;28;20127;-46
2023/10/06 08:45:18;;;;;;;10.10;5.70;;;15.60;99.90;;;;;;5067386;28;20395;-48
2023/10/06 08:47:45;;;;;;;9.95;6.22;;;15.70;99.90;;;;;;5067593;28;20131;-48
2023/10/06 08:50:13;;;;;;;12.25;6.15;;;15.80;99.90;;;;;;5074706;28;20041;-47
2023/10/06 08:52:40;;;;;;;10.30;6.00;;;16.00;99.90;;;;;;5069659;28;20047;-47
2023/10/06 08:55:06;;;;;;;11.07;5.47;;;16.20;99.90;;;;;;5062392;28;20116;-49
2023/10/06 08:57:33;;;;;;;12.38;5.82;;;16.30;99.90;;;;;;5061330;28;20057;-49
2023/10/06 08:59:58;;;;;;;12.38;5.90;;;16.60;99.90;;;;;;5068518;28;21999;-49
2023/10/06 09:02:25;;;;;;;8.35;5.10;;;16.70;99.90;;;;;;5046589;28;20041;-49
2023/10/06 09:04:54;;;;;;;11.17;5.70;;;16.60;99.90;;;;;;5060897;28;20445;-48
2023/10/06 09:07:21;;;;;;;13.57;5.35;;;16.50;99.90;;;;;;5061895;28;20055;-49
2023/10/06 09:09:47;;;;;;;13.43;5.50;;;16.40;99.90;;;;;;5074082;28;20558;-50
2023/10/06 09:12:26;;;;;;;10.63;5.03;;;16.40;99.90;;;;;;5056669;28;20119;-47
2023/10/06 09:14:56;;;;;;;9.55;5.43;;;16.30;99.90;;;;;;5056865;28;20048;-46
2023/10/06 09:17:33;;;;;;;12.15;5.35;;;16.40;99.90;;;;;;5060027;28;20040;-46
2023/10/06 09:19:59;;;;;;;9.80;4.70;;;16.40;99.90;;;;;;5060909;28;20375;-46
2023/10/06 09:22:29;;;;;;;11.70;6.15;;;16.40;99.90;;;;;;5071505;28;20053;-46
2023/10/06 09:25:00;;;;;;;11.55;5.32;;;16.40;99.90;;;;;;5073094;28;20074;-49
2023/10/06 09:27:26;;;;;;;10.18;5.13;;;16.40;99.90;;;;;;5066747;28;20048;-46
2023/10/06 09:30:10;;;;;;;10.50;5.25;;;16.50;99.90;;;;;;5063286;28;20131;-48
2023/10/06 09:32:36;;;;;;;11.43;5.10;;;16.50;99.90;;;;;;5063420;28;20052;-46
2023/10/06 09:35:22;;;;;;;11.63;5.47;;;16.60;99.90;;;;;;5073530;28;20040;-46
2023/10/06 09:37:48;;;;;;;11.10;5.10;;;16.60;99.90;;;;;;5059126;28;20150;-46
2023/10/06 09:40:20;;;;;;;12.43;5.10;;;16.60;99.90;;;;;;5074264;28;20047;-46
2023/10/06 09:42:48;;;;;;;11.25;5.10;;;16.80;99.90;;;;;;5054936;28;20044;-48
2023/10/06 09:45:18;;;;;;;10.65;5.28;;;17.00;99.90;;;;;;5060708;28;20076;-46
2023/10/06 09:47:50;;;;;;;10.70;5.35;;;17.30;99.90;;;;;;5071425;28;20048;-47
2023/10/06 09:50:19;;;;;;;9.68;4.60;;;17.60;99.90;;;;;;5061008;28;20405;-48
2023/10/06 09:52:47;;;;;;;8.57;4.43;;;17.80;99.90;;;;;;5058445;28;20083;-47
2023/10/06 09:55:17;;;;;;;9.80;4.50;;;17.80;99.90;;;;;;5070455;28;20135;-47
2023/10/06 09:57:47;;;;;;;7.18;4.50;;;18.00;99.90;;;;;;5052919;28;20053;-49
2023/10/06 10:00:18;;;;;;;9.48;4.22;;;18.00;99.90;;;;;;5072782;28;20056;-46
2023/10/06 10:02:45;;;;;;;7.82;3.90;;;18.10;99.90;;;;;;5068894;28;20028;-46
2023/10/06 10:05:19;;;;;;;8.30;4.07;;;18.10;99.90;;;;;;5066983;28;20487;-48
2023/10/06 10:07:48;;;;;;;9.68;3.78;;;18.20;99.90;;;;;;5059263;28;20045;-46
2023/10/06 10:10:15;;;;;;;9.38;4.53;;;18.40;99.90;;;;;;5058081;28;20037;-47
2023/10/06 10:13:01;;;;;;;8.13;4.13;;;18.50;99.90;;;;;;5059169;28;20402;-49
2023/10/06 10:15:51;;;;;;;9.52;3.85;;;18.60;99.90;;;;;;5063479;28;20053;-47
2023/10/06 10:18:35;;;;;;;9.63;4.53;;;18.80;99.90;;;;;;5058877;28;20444;-46
2023/10/06 10:21:02;;;;;;;9.65;4.78;;;18.90;99.90;;;;;;5061936;28;20055;-47
2023/10/06 10:23:31;;;;;;;8.43;4.07;;;;;;;;;;5064450;28;20083;-47
2023/10/06 10:26:18;;;;;;;7.85;4.30;;;19.40;99.90;;;;;;5071182;28;20083;-47
2023/10/06 10:29:03;;;;;;;5.57;3.70;;;19.60;99.90;;;;;;5058470;28;20044;-49
2023/10/06 10:31:36;;;;;;;8.02;3.83;;;19.70;99.90;;;;;;5066210;28;20111;-48
2023/10/06 10:34:02;;;;;;;7.22;3.63;;;19.90;99.90;;;;;;5054671;28;20494;-46
2023/10/06 10:36:28;;;;;;;8.05;4.00;;;20.00;99.90;;;;;;5053695;28;20029;-46
2023/10/06 10:39:01;;;;;;;7.65;3.65;;;19.80;99.90;;;;;;5059459;28;20037;-47
2023/10/06 10:41:34;;;;;;;11.82;4.10;;;19.90;99.90;;;;;;5068235;28;20041;-47
2023/10/06 10:44:06;;;;;;;6.55;3.63;;;20.00;99.90;;;;;;5054430;28;20049;-46
2023/10/06 10:46:40;;;;;;;6.95;3.67;;;20.00;99.90;;;;;;5057184;28;20045;-46
2023/10/06 10:49:09;;;;;;;7.70;4.00;;;20.00;99.90;;;;;;5063056;28;20247;-45
2023/10/06 10:51:55;;;;;;;7.68;3.33;;;19.90;99.90;;;;;;5068322;28;20036;-45
2023/10/06 10:54:22;;;;;;;8.27;3.60;;;20.00;99.90;;;;;;5057974;28;20044;-46
2023/10/06 10:56:51;;;;;;;7.00;3.38;;;20.20;99.90;;;;;;5058415;28;20041;-46
2023/10/06 10:59:18;;;;;;;6.43;3.60;;;20.30;99.90;;;;;;5056777;28;20471;-49
2023/10/06 11:01:51;;;;;;;6.68;3.50;;;20.50;99.90;;;;;;5057176;28;20044;-46
2023/10/06 11:04:24;;;;;;;7.88;3.63;;;20.50;99.90;;;;;;5061595;28;20613;-46
2023/10/06 11:06:51;;;;;;;9.05;4.22;;;20.60;99.90;;;;;;5063772;28;20448;-49
2023/10/06 11:09:29;;;;;;;9.52;4.72;;;20.60;99.90;;;;;;5060542;28;20111;-48
2023/10/06 11:11:58;;;;;;;7.55;3.83;;;20.60;99.90;;;;;;5053850;28;20400;-46
2023/10/06 11:14:25;;;;;;;8.90;3.65;;;20.60;99.90;;;;;;5058413;28;20044;-48
2023/10/06 11:16:52;;;;;;;10.63;3.75;;;20.70;99.90;;;;;;5063738;28;20107;-47
2023/10/06 11:19:18;;;;;;;8.85;3.92;;;20.50;99.90;;;;;;5063382;28;20079;-49
2023/10/06 11:21:44;;;;;;;7.07;3.53;;;20.50;99.90;;;;;;5067434;28;20487;-48
2023/10/06 11:24:12;;;;;;;6.35;3.67;;;20.50;99.90;;;;;;5054819;28;20044;-47
2023/10/06 11:26:38;;;;;;;6.50;3.22;;;20.50;99.90;;;;;;5059159;28;20399;-47
2023/10/06 11:29:04;;;;;;;6.68;3.38;;;20.30;99.90;;;;;;5062507;28;20044;-50
2023/10/06 11:31:30;;;;;;;10.82;4.22;;;20.20;99.90;;;;;;5060182;28;20044;-47
2023/10/06 11:33:57;;;;;;;7.47;3.53;;;20.10;99.90;;;;;;5062210;28;21706;-47
2023/10/06 11:36:23;;;;;;;7.13;3.53;;;20.00;99.90;;;;;;5055974;28;20051;-49
2023/10/06 11:38:50;;;;;;;9.63;3.97;;;20.10;99.90;;;;;;5059348;28;20045;-47
2023/10/06 11:41:23;;;;;;;7.65;3.85;;;20.10;99.90;;;;;;5066510;28;20089;-48
2023/10/06 11:43:58;;;;;;;8.70;3.70;;;20.00;99.90;;;;;;5061933;28;20074;-49
2023/10/06 11:46:24;;;;;;;7.25;3.78;;;20.00;99.90;;;;;;5060787;28;20494;-48
2023/10/06 11:48:52;;;;;;;9.48;3.97;;;20.00;99.90;;;;;;5039564;28;20028;-46
2023/10/06 11:51:18;;;;;;;10.65;4.45;;;19.90;99.90;;;;;;5058905;28;20047;-47
2023/10/06 11:53:44;;;;;;;9.18;4.07;;;19.80;99.90;;;;;;5066307;28;20810;-46
2023/10/06 11:56:15;;;;;;;10.85;4.47;;;19.80;99.90;;;;;;5058209;28;20040;-46
2023/10/06 11:58:42;;;;;;;7.20;3.75;;;19.80;99.90;;;;;;5055550;28;20087;-45
2023/10/06 12:01:36;;;;;;;9.93;3.83;;;19.80;99.90;;;;;;5056148;28;20045;-47
2023/10/06 12:04:04;;;;;;;7.65;3.45;;;20.00;99.90;;;;;;5056889;28;20120;-46
2023/10/06 12:06:40;;;;;;;7.18;3.70;;;20.00;99.90;;;;;;5059249;28;20098;-47
2023/10/06 12:09:13;;;;;;;12.73;4.32;;;20.10;99.90;;;;;;5064375;28;20037;-45
2023/10/06 12:11:39;;;;;;;8.40;3.88;;;20.20;99.90;;;;;;5058307;28;20037;-46
2023/10/06 12:14:05;;;;;;;8.43;3.72;;;20.20;99.90;;;;;;5057807;28;20479;-46
2023/10/06 12:16:31;;;;;;;12.00;4.78;;;20.20;99.90;;;;;;5060626;28;20044;-46
2023/10/06 12:18:56;;;;;;;11.80;4.25;;;20.20;99.90;;;;;;5062643;28;20058;-46
2023/10/06 12:21:22;;;;;;;9.00;4.00;;;20.20;99.90;;;;;;5059111;28;20426;-47
2023/10/06 12:23:48;;;;;;;8.15;3.70;;;20.30;99.90;;;;;;5071310;28;20053;-46
2023/10/06 12:26:14;;;;;;;9.55;4.00;;;20.20;99.90;;;;;;5073674;28;20067;-46
2023/10/06 12:28:42;;;;;;;8.48;3.72;;;20.20;99.90;;;;;;5073487;28;20094;-47
2023/10/06 12:31:08;;;;;;;9.02;3.33;;;20.20;99.90;;;;;;5070351;28;20053;-46
2023/10/06 12:33:34;;;;;;;8.40;3.83;;;20.20;99.90;;;;;;5071498;28;20049;-46
2023/10/06 12:36:03;;;;;;;7.55;3.70;;;20.20;99.90;;;;;;5052346;28;20120;-48
2023/10/06 12:38:30;;;;;;;7.03;4.20;;;20.20;99.90;;;;;;5051295;28;20048;-47
2023/10/06 12:40:55;;;;;;;8.45;3.90;;;20.00;99.90;;;;;;5050188;28;20432;-47
2023/10/06 12:43:21;;;;;;;8.90;4.00;;;19.90;99.90;;;;;;5050805;28;20125;-47
2023/10/06 12:45:47;;;;;;;10.60;3.90;;;19.90;99.90;;;;;;5068734;28;20052;-50
2023/10/06 12:48:13;;;;;;;8.52;3.63;;;20.00;99.90;;;;;;5070770;28;20072;-46
2023/10/06 12:50:42;;;;;;;7.35;3.80;;;20.00;99.90;;;;;;5071279;28;20041;-46
2023/10/06 12:53:11;;;;;;;8.93;4.00;;;20.10;99.90;;;;;;5059825;28;20040;-47
2023/10/06 12:55:44;;;;;;;8.23;3.38;;;20.10;99.90;;;;;;5051392;28;20329;-46
2023/10/06 12:58:11;;;;;;;9.98;3.80;;;20.00;99.90;;;;;;5070094;28;20041;-48
2023/10/06 13:00:40;;;;;;;9.45;3.55;;;20.00;99.90;;;;;;5071001;28;20048;-48
2023/10/06 13:03:15;;;;;;;8.27;4.20;;;20.10;99.90;;;;;;5071162;28;20059;-49
2023/10/06 13:05:45;;;;;;;6.18;3.83;;;20.20;99.90;;;;;;5069300;28;20052;-47
2023/10/06 13:08:16;;;;;;;9.93;4.40;;;20.20;99.90;;;;;;5070947;28;20410;-46
2023/10/06 13:10:46;;;;;;;9.80;4.28;;;20.40;99.90;;;;;;5051919;28;20064;-47
2023/10/06 13:13:13;;;;;;;9.32;3.92;;;20.40;99.90;;;;;;5070814;28;20486;-49
2023/10/06 13:15:41;;;;;;;6.50;4.00;;;20.30;99.90;;;;;;5069678;28;20041;-49
2023/10/06 13:18:09;;;;;;;11.55;4.05;;;20.20;99.90;;;;;;5074160;28;20067;-48
2023/10/06 13:20:35;;;;;;;9.07;3.50;;;20.20;99.90;;;;;;5074110;28;20101;-45
2023/10/06 13:23:04;;;;;;;10.25;4.15;;;20.20;99.90;;;;;;5074241;28;20044;-49
2023/10/06 13:25:31;;;;;;;8.70;3.88;;;20.10;99.90;;;;;;5056789;28;20480;-46
2023/10/06 13:27:58;;;;;;;8.85;3.90;;;20.10;99.90;;;;;;5057248;28;20040;-46
2023/10/06 13:30:24;;;;;;;7.50;4.28;;;20.10;99.90;;;;;;5055575;28;20516;-46